createdAt,value
2019-05-21T00:00:58.000Z,1006.48
2019-05-21T00:01:58.000Z,1006.45
2019-05-21T00:02:58.000Z,1006.49
2019-05-21T00:03:58.000Z,1006.47
2019-05-21T00:04:58.000Z,1006.47
2019-05-21T00:05:58.000Z,1006.47
2019-05-21T00:06:58.000Z,1006.47
2019-05-21T00:07:58.000Z,1006.45
2019-05-21T00:08:58.000Z,1006.48
2019-05-21T00:09:58.000Z,1006.47
2019-05-21T00:10:58.000Z,1006.49
2019-05-21T00:11:58.000Z,1006.47
2019-05-21T00:12:58.000Z,1006.50
2019-05-21T00:13:58.000Z,1006.50
2019-05-21T00:14:58.000Z,1006.44
2019-05-21T00:15:58.000Z,1006.46
2019-05-21T00:16:58.000Z,1006.46
2019-05-21T00:17:58.000Z,1006.42
2019-05-21T00:18:58.000Z,1006.48
2019-05-21T00:19:58.000Z,1006.46
2019-05-21T00:20:58.000Z,1006.46
2019-05-21T00:21:58.000Z,1006.46
2019-05-21T00:22:58.000Z,1006.45
2019-05-21T00:23:58.000Z,1006.51
2019-05-21T00:24:58.000Z,1006.45
2019-05-21T00:25:58.000Z,1006.43
2019-05-21T00:26:58.000Z,1006.47
2019-05-21T00:27:58.000Z,1006.44
2019-05-21T00:28:58.000Z,1006.43
2019-05-21T00:29:58.000Z,1006.39
2019-05-21T00:30:58.000Z,1006.40
2019-05-21T00:31:58.000Z,1006.43
2019-05-21T00:32:58.000Z,1006.43
2019-05-21T00:33:58.000Z,1006.45
2019-05-21T00:34:58.000Z,1006.41
2019-05-21T00:35:58.000Z,1006.46
2019-05-21T00:36:58.000Z,1006.43
2019-05-21T00:37:58.000Z,1006.41
2019-05-21T00:38:58.000Z,1006.40
2019-05-21T00:39:58.000Z,1006.40
2019-05-21T00:40:58.000Z,1006.43
2019-05-21T00:41:58.000Z,1006.43
2019-05-21T00:42:58.000Z,1006.42
2019-05-21T00:43:58.000Z,1006.43
2019-05-21T00:44:58.000Z,1006.37
2019-05-21T00:45:58.000Z,1006.42
2019-05-21T00:46:58.000Z,1006.40
2019-05-21T00:47:58.000Z,1006.38
2019-05-21T00:48:58.000Z,1006.38
2019-05-21T00:49:58.000Z,1006.37
2019-05-21T00:50:58.000Z,1006.39
2019-05-21T00:51:58.000Z,1006.39
2019-05-21T00:52:58.000Z,1006.36
2019-05-21T00:53:58.000Z,1006.40
2019-05-21T00:54:58.000Z,1006.38
2019-05-21T00:55:58.000Z,1006.40
2019-05-21T00:56:58.000Z,1006.40
2019-05-21T00:57:58.000Z,1006.40
2019-05-21T00:58:58.000Z,1006.39
2019-05-21T00:59:58.000Z,1006.43
2019-05-21T01:00:58.000Z,1006.44
2019-05-21T01:01:58.000Z,1006.42
2019-05-21T01:02:59.000Z,1006.46
2019-05-21T01:03:58.000Z,1006.45
2019-05-21T01:04:58.000Z,1006.42
2019-05-21T01:05:58.000Z,1006.48
2019-05-21T01:06:58.000Z,1006.49
2019-05-21T01:07:58.000Z,1006.50
2019-05-21T01:08:58.000Z,1006.49
2019-05-21T01:09:58.000Z,1006.50
2019-05-21T01:10:58.000Z,1006.50
2019-05-21T01:11:58.000Z,1006.47
2019-05-21T01:12:58.000Z,1006.49
2019-05-21T01:13:58.000Z,1006.49
2019-05-21T01:14:58.000Z,1006.53
2019-05-21T01:15:58.000Z,1006.51
2019-05-21T01:16:58.000Z,1006.47
2019-05-21T01:17:58.000Z,1006.48
2019-05-21T01:18:58.000Z,1006.52
2019-05-21T01:19:58.000Z,1006.52
2019-05-21T01:20:58.000Z,1006.52
2019-05-21T01:21:58.000Z,1006.55
2019-05-21T01:22:58.000Z,1006.53
2019-05-21T01:23:58.000Z,1006.49
2019-05-21T01:24:58.000Z,1006.54
2019-05-21T01:25:58.000Z,1006.51
2019-05-21T01:26:58.000Z,1006.50
2019-05-21T01:27:58.000Z,1006.49
2019-05-21T01:28:58.000Z,1006.52
2019-05-21T01:29:58.000Z,1006.48
2019-05-21T01:30:58.000Z,1006.50
2019-05-21T01:31:58.000Z,1006.50
2019-05-21T01:32:58.000Z,1006.49
2019-05-21T01:33:58.000Z,1006.49
2019-05-21T01:34:58.000Z,1006.52
2019-05-21T01:35:58.000Z,1006.50
2019-05-21T01:36:58.000Z,1006.52
2019-05-21T01:37:58.000Z,1006.51
2019-05-21T01:38:58.000Z,1006.52
2019-05-21T01:39:58.000Z,1006.51
2019-05-21T01:40:58.000Z,1006.48
2019-05-21T01:41:58.000Z,1006.47
2019-05-21T01:42:58.000Z,1006.49
2019-05-21T01:43:58.000Z,1006.48
2019-05-21T01:44:58.000Z,1006.47
2019-05-21T01:45:58.000Z,1006.43
2019-05-21T01:46:59.000Z,1006.44
2019-05-21T01:47:58.000Z,1006.45
2019-05-21T01:48:58.000Z,1006.43
2019-05-21T01:49:58.000Z,1006.45
2019-05-21T01:50:58.000Z,1006.44
2019-05-21T01:51:58.000Z,1006.42
2019-05-21T01:52:58.000Z,1006.43
2019-05-21T01:53:58.000Z,1006.42
2019-05-21T01:54:58.000Z,1006.41
2019-05-21T01:55:58.000Z,1006.43
2019-05-21T01:56:58.000Z,1006.42
2019-05-21T01:57:58.000Z,1006.49
2019-05-21T01:58:58.000Z,1006.46
2019-05-21T01:59:58.000Z,1006.48
2019-05-21T02:00:58.000Z,1006.47
2019-05-21T02:01:58.000Z,1006.49
2019-05-21T02:02:58.000Z,1006.49
2019-05-21T02:03:58.000Z,1006.51
2019-05-21T02:04:58.000Z,1006.44
2019-05-21T02:05:58.000Z,1006.45
2019-05-21T02:06:58.000Z,1006.47
2019-05-21T02:07:58.000Z,1006.44
2019-05-21T02:08:58.000Z,1006.43
2019-05-21T02:09:58.000Z,1006.42
2019-05-21T02:10:58.000Z,1006.39
2019-05-21T02:11:58.000Z,1006.39
2019-05-21T02:12:58.000Z,1006.40
2019-05-21T02:13:58.000Z,1006.41
2019-05-21T02:14:58.000Z,1006.43
2019-05-21T02:15:58.000Z,1006.46
2019-05-21T02:16:58.000Z,1006.45
2019-05-21T02:17:58.000Z,1006.44
2019-05-21T02:18:58.000Z,1006.48
2019-05-21T02:19:58.000Z,1006.44
2019-05-21T02:20:58.000Z,1006.42
2019-05-21T02:21:58.000Z,1006.43
2019-05-21T02:22:58.000Z,1006.41
2019-05-21T02:23:58.000Z,1006.41
2019-05-21T02:24:58.000Z,1006.40
2019-05-21T02:25:58.000Z,1006.40
2019-05-21T02:26:58.000Z,1006.41
2019-05-21T02:27:58.000Z,1006.40
2019-05-21T02:28:58.000Z,1006.41
2019-05-21T02:29:58.000Z,1006.39
2019-05-21T02:30:58.000Z,1006.44
2019-05-21T02:31:58.000Z,1006.41
2019-05-21T02:32:58.000Z,1006.41
2019-05-21T02:33:58.000Z,1006.41
2019-05-21T02:34:58.000Z,1006.41
2019-05-21T02:35:58.000Z,1006.38
2019-05-21T02:36:58.000Z,1006.36
2019-05-21T02:37:58.000Z,1006.45
2019-05-21T02:38:58.000Z,1006.42
2019-05-21T02:39:58.000Z,1006.40
2019-05-21T02:40:58.000Z,1006.42
2019-05-21T02:41:58.000Z,1006.40
2019-05-21T02:42:58.000Z,1006.42
2019-05-21T02:43:58.000Z,1006.43
2019-05-21T02:44:58.000Z,1006.43
2019-05-21T02:45:58.000Z,1006.44
2019-05-21T02:46:58.000Z,1006.40
2019-05-21T02:47:58.000Z,1006.41
2019-05-21T02:48:58.000Z,1006.38
2019-05-21T02:49:58.000Z,1006.38
2019-05-21T02:50:58.000Z,1006.40
2019-05-21T02:51:58.000Z,1006.37
2019-05-21T02:52:58.000Z,1006.38
2019-05-21T02:53:58.000Z,1006.35
2019-05-21T02:54:58.000Z,1006.35
2019-05-21T02:55:58.000Z,1006.34
2019-05-21T02:56:58.000Z,1006.32
2019-05-21T02:57:58.000Z,1006.33
2019-05-21T02:58:58.000Z,1006.28
2019-05-21T02:59:58.000Z,1006.34
2019-05-21T03:00:58.000Z,1006.33
2019-05-21T03:01:58.000Z,1006.31
2019-05-21T03:02:58.000Z,1006.30
2019-05-21T03:03:58.000Z,1006.33
2019-05-21T03:04:58.000Z,1006.31
2019-05-21T03:05:58.000Z,1006.34
2019-05-21T03:06:58.000Z,1006.32
2019-05-21T03:07:58.000Z,1006.33
2019-05-21T03:08:58.000Z,1006.36
2019-05-21T03:09:58.000Z,1006.34
2019-05-21T03:10:58.000Z,1006.35
2019-05-21T03:11:58.000Z,1006.35
2019-05-21T03:12:58.000Z,1006.33
2019-05-21T03:13:58.000Z,1006.40
2019-05-21T03:14:58.000Z,1006.39
2019-05-21T03:15:58.000Z,1006.39
2019-05-21T03:16:58.000Z,1006.41
2019-05-21T03:17:58.000Z,1006.43
2019-05-21T03:18:58.000Z,1006.44
2019-05-21T03:19:58.000Z,1006.44
2019-05-21T03:20:58.000Z,1006.45
2019-05-21T03:21:58.000Z,1006.48
2019-05-21T03:22:58.000Z,1006.48
2019-05-21T03:23:58.000Z,1006.50
2019-05-21T03:24:58.000Z,1006.52
2019-05-21T03:25:58.000Z,1006.54
2019-05-21T03:26:58.000Z,1006.51
2019-05-21T03:27:58.000Z,1006.50
2019-05-21T03:28:58.000Z,1006.47
2019-05-21T03:29:58.000Z,1006.46
2019-05-21T03:30:58.000Z,1006.48
2019-05-21T03:31:58.000Z,1006.45
2019-05-21T03:32:58.000Z,1006.46
2019-05-21T03:33:58.000Z,1006.46
2019-05-21T03:34:58.000Z,1006.47
2019-05-21T03:35:58.000Z,1006.46
2019-05-21T03:36:58.000Z,1006.41
2019-05-21T03:37:58.000Z,1006.45
2019-05-21T03:38:58.000Z,1006.41
2019-05-21T03:39:58.000Z,1006.42
2019-05-21T03:40:58.000Z,1006.42
2019-05-21T03:41:58.000Z,1006.42
2019-05-21T03:42:58.000Z,1006.42
2019-05-21T03:43:58.000Z,1006.43
2019-05-21T03:44:58.000Z,1006.44
2019-05-21T03:45:58.000Z,1006.45
2019-05-21T03:46:58.000Z,1006.47
2019-05-21T03:47:58.000Z,1006.49
2019-05-21T03:48:58.000Z,1006.49
2019-05-21T03:49:58.000Z,1006.49
2019-05-21T03:50:58.000Z,1006.48
2019-05-21T03:51:58.000Z,1006.51
2019-05-21T03:52:58.000Z,1006.52
2019-05-21T03:53:58.000Z,1006.59
2019-05-21T03:54:58.000Z,1006.61
2019-05-21T03:55:58.000Z,1006.63
2019-05-21T03:56:58.000Z,1006.64
2019-05-21T03:57:58.000Z,1006.71
2019-05-21T03:58:58.000Z,1006.72
2019-05-21T03:59:58.000Z,1006.72
2019-05-21T04:00:58.000Z,1006.79
2019-05-21T04:01:58.000Z,1006.76
2019-05-21T04:02:58.000Z,1006.76
2019-05-21T04:03:58.000Z,1006.82
2019-05-21T04:04:58.000Z,1006.83
2019-05-21T04:05:58.000Z,1006.80
2019-05-21T04:06:58.000Z,1006.84
2019-05-21T04:07:58.000Z,1006.82
2019-05-21T04:08:58.000Z,1006.87
2019-05-21T04:09:58.000Z,1006.85
2019-05-21T04:10:58.000Z,1006.86
2019-05-21T04:11:58.000Z,1006.89
2019-05-21T04:12:58.000Z,1006.85
2019-05-21T04:13:58.000Z,1006.85
2019-05-21T04:14:58.000Z,1006.85
2019-05-21T04:15:58.000Z,1006.87
2019-05-21T04:16:58.000Z,1006.87
2019-05-21T04:17:58.000Z,1006.87
2019-05-21T04:18:58.000Z,1006.87
2019-05-21T04:19:58.000Z,1006.89
2019-05-21T04:20:58.000Z,1006.93
2019-05-21T04:21:58.000Z,1006.92
2019-05-21T04:22:58.000Z,1006.90
2019-05-21T04:23:58.000Z,1006.90
2019-05-21T04:24:58.000Z,1006.88
2019-05-21T04:25:58.000Z,1006.93
2019-05-21T04:26:58.000Z,1006.92
2019-05-21T04:27:58.000Z,1006.92
2019-05-21T04:28:58.000Z,1006.92
2019-05-21T04:29:58.000Z,1006.92
2019-05-21T04:30:58.000Z,1006.93
2019-05-21T04:31:58.000Z,1006.94
2019-05-21T04:32:58.000Z,1006.97
2019-05-21T04:33:58.000Z,1006.94
2019-05-21T04:34:58.000Z,1006.92
2019-05-21T04:35:58.000Z,1006.90
2019-05-21T04:36:58.000Z,1006.92
2019-05-21T04:37:58.000Z,1006.90
2019-05-21T04:38:58.000Z,1006.91
2019-05-21T04:39:59.000Z,1006.87
2019-05-21T04:40:58.000Z,1006.88
2019-05-21T04:41:58.000Z,1006.85
2019-05-21T04:42:58.000Z,1006.85
2019-05-21T04:43:58.000Z,1006.78
2019-05-21T04:44:58.000Z,1006.78
2019-05-21T04:45:58.000Z,1006.80
2019-05-21T04:46:58.000Z,1006.70
2019-05-21T04:47:58.000Z,1006.65
2019-05-21T04:48:58.000Z,1006.62
2019-05-21T04:49:58.000Z,1006.60
2019-05-21T04:50:58.000Z,1006.55
2019-05-21T04:51:58.000Z,1006.52
2019-05-21T04:52:58.000Z,1006.50
2019-05-21T04:53:58.000Z,1006.53
2019-05-21T04:54:58.000Z,1006.50
2019-05-21T04:55:58.000Z,1006.50
2019-05-21T04:56:58.000Z,1006.53
2019-05-21T04:57:58.000Z,1006.49
2019-05-21T04:58:58.000Z,1006.53
2019-05-21T04:59:58.000Z,1006.52
2019-05-21T05:00:59.000Z,1006.48
2019-05-21T05:01:58.000Z,1006.48
2019-05-21T05:02:58.000Z,1006.49
2019-05-21T05:03:58.000Z,1006.47
2019-05-21T05:04:58.000Z,1006.43
2019-05-21T05:05:58.000Z,1006.44
2019-05-21T05:06:58.000Z,1006.42
2019-05-21T05:07:58.000Z,1006.44
2019-05-21T05:08:58.000Z,1006.45
2019-05-21T05:09:58.000Z,1006.50
2019-05-21T05:10:58.000Z,1006.54
2019-05-21T05:11:58.000Z,1006.56
2019-05-21T05:12:58.000Z,1006.62
2019-05-21T05:13:58.000Z,1006.63
2019-05-21T05:14:58.000Z,1006.64
2019-05-21T05:15:58.000Z,1006.62
2019-05-21T05:16:58.000Z,1006.64
2019-05-21T05:17:58.000Z,1006.67
2019-05-21T05:18:58.000Z,1006.61
2019-05-21T05:19:58.000Z,1006.61
2019-05-21T05:20:58.000Z,1006.57
2019-05-21T05:21:58.000Z,1006.60
2019-05-21T05:22:58.000Z,1006.69
2019-05-21T05:23:58.000Z,1006.73
2019-05-21T05:24:58.000Z,1006.68
2019-05-21T05:25:58.000Z,1006.65
2019-05-21T05:26:58.000Z,1006.63
2019-05-21T05:27:58.000Z,1006.51
2019-05-21T05:28:58.000Z,1006.58
2019-05-21T05:29:58.000Z,1006.59
2019-05-21T05:30:58.000Z,1006.66
2019-05-21T05:31:58.000Z,1006.72
2019-05-21T05:32:58.000Z,1006.75
2019-05-21T05:33:58.000Z,1006.66
2019-05-21T05:34:58.000Z,1006.66
2019-05-21T05:35:58.000Z,1006.61
2019-05-21T05:36:58.000Z,1006.62
2019-05-21T05:37:58.000Z,1006.62
2019-05-21T05:38:58.000Z,1006.67
2019-05-21T05:39:58.000Z,1006.66
2019-05-21T05:40:58.000Z,1006.72
2019-05-21T05:41:58.000Z,1006.81
2019-05-21T05:42:58.000Z,1006.89
2019-05-21T05:43:58.000Z,1006.93
2019-05-21T05:44:59.000Z,1006.95
2019-05-21T05:45:58.000Z,1006.93
2019-05-21T05:46:58.000Z,1006.92
2019-05-21T05:47:58.000Z,1006.95
2019-05-21T05:48:58.000Z,1006.93
2019-05-21T05:49:58.000Z,1006.93
2019-05-21T05:50:58.000Z,1006.99
2019-05-21T05:51:58.000Z,1006.95
2019-05-21T05:52:58.000Z,1007.00
2019-05-21T05:53:58.000Z,1007.01
2019-05-21T05:54:58.000Z,1007.03
2019-05-21T05:55:58.000Z,1006.99
2019-05-21T05:56:58.000Z,1006.98
2019-05-21T05:57:58.000Z,1006.92
2019-05-21T05:58:58.000Z,1006.96
2019-05-21T05:59:58.000Z,1006.95
2019-05-21T06:00:58.000Z,1006.99
2019-05-21T06:01:58.000Z,1007.04
2019-05-21T06:02:58.000Z,1007.03
2019-05-21T06:03:58.000Z,1007.02
2019-05-21T06:04:58.000Z,1007.08
2019-05-21T06:05:58.000Z,1007.07
2019-05-21T06:06:58.000Z,1007.10
2019-05-21T06:07:58.000Z,1007.06
2019-05-21T06:08:58.000Z,1007.02
2019-05-21T06:09:58.000Z,1007.04
2019-05-21T06:10:58.000Z,1007.05
2019-05-21T06:11:58.000Z,1007.01
2019-05-21T06:12:58.000Z,1007.07
2019-05-21T06:13:58.000Z,1007.08
2019-05-21T06:14:58.000Z,1007.15
2019-05-21T06:15:58.000Z,1007.13
2019-05-21T06:16:58.000Z,1007.13
2019-05-21T06:17:58.000Z,1007.10
2019-05-21T06:18:58.000Z,1007.08
2019-05-21T06:19:58.000Z,1007.09
2019-05-21T06:20:58.000Z,1007.10
2019-05-21T06:21:58.000Z,1007.12
2019-05-21T06:22:58.000Z,1007.11
2019-05-21T06:23:58.000Z,1007.11
2019-05-21T06:24:58.000Z,1007.13
2019-05-21T06:25:58.000Z,1007.09
2019-05-21T06:26:58.000Z,1007.15
2019-05-21T06:27:58.000Z,1007.13
2019-05-21T06:28:58.000Z,1007.12
2019-05-21T06:29:58.000Z,1007.13
2019-05-21T06:30:58.000Z,1007.13
2019-05-21T06:31:58.000Z,1007.11
2019-05-21T06:32:58.000Z,1007.16
2019-05-21T06:33:58.000Z,1007.12
2019-05-21T06:34:58.000Z,1007.10
2019-05-21T06:35:58.000Z,1007.07
2019-05-21T06:36:58.000Z,1007.12
2019-05-21T06:37:58.000Z,1007.06
2019-05-21T06:38:58.000Z,1007.06
2019-05-21T06:39:58.000Z,1007.05
2019-05-21T06:40:58.000Z,1007.04
2019-05-21T06:41:58.000Z,1006.95
2019-05-21T06:42:58.000Z,1006.97
2019-05-21T06:43:58.000Z,1006.93
2019-05-21T06:44:58.000Z,1006.92
2019-05-21T06:45:58.000Z,1006.86
2019-05-21T06:46:58.000Z,1006.95
2019-05-21T06:47:58.000Z,1007.02
2019-05-21T06:48:58.000Z,1007.06
2019-05-21T06:49:58.000Z,1007.00
2019-05-21T06:50:58.000Z,1007.02
2019-05-21T06:51:58.000Z,1007.05
2019-05-21T06:52:58.000Z,1007.08
2019-05-21T06:53:58.000Z,1007.05
2019-05-21T06:54:58.000Z,1007.08
2019-05-21T06:55:58.000Z,1007.11
2019-05-21T06:56:58.000Z,1007.09
2019-05-21T06:57:58.000Z,1007.12
2019-05-21T06:58:58.000Z,1007.16
2019-05-21T06:59:58.000Z,1007.12
2019-05-21T07:00:58.000Z,1007.16
2019-05-21T07:01:58.000Z,1007.17
2019-05-21T07:02:58.000Z,1007.22
2019-05-21T07:03:58.000Z,1007.17
2019-05-21T07:04:58.000Z,1007.13
2019-05-21T07:05:58.000Z,1007.17
2019-05-21T07:06:58.000Z,1007.14
2019-05-21T07:07:58.000Z,1007.18
2019-05-21T07:08:58.000Z,1007.17
2019-05-21T07:09:58.000Z,1007.20
2019-05-21T07:10:58.000Z,1007.24
2019-05-21T07:11:59.000Z,1007.27
2019-05-21T07:12:58.000Z,1007.34
2019-05-21T07:13:58.000Z,1007.31
2019-05-21T07:14:58.000Z,1007.37
2019-05-21T07:15:58.000Z,1007.39
2019-05-21T07:16:58.000Z,1007.42
2019-05-21T07:17:58.000Z,1007.40
2019-05-21T07:18:58.000Z,1007.34
2019-05-21T07:19:58.000Z,1007.39
2019-05-21T07:20:58.000Z,1007.37
2019-05-21T07:21:58.000Z,1007.39
2019-05-21T07:22:58.000Z,1007.37
2019-05-21T07:23:58.000Z,1007.37
2019-05-21T07:24:58.000Z,1007.34
2019-05-21T07:25:58.000Z,1007.38
2019-05-21T07:26:58.000Z,1007.32
2019-05-21T07:27:58.000Z,1007.30
2019-05-21T07:28:58.000Z,1007.30
2019-05-21T07:29:58.000Z,1007.27
2019-05-21T07:30:58.000Z,1007.31
2019-05-21T07:31:58.000Z,1007.34
2019-05-21T07:32:58.000Z,1007.34
2019-05-21T07:33:58.000Z,1007.32
2019-05-21T07:34:58.000Z,1007.27
2019-05-21T07:35:58.000Z,1007.31
2019-05-21T07:36:58.000Z,1007.34
2019-05-21T07:37:58.000Z,1007.41
2019-05-21T07:38:58.000Z,1007.46
2019-05-21T07:39:58.000Z,1007.44
2019-05-21T07:40:58.000Z,1007.41
2019-05-21T07:41:58.000Z,1007.43
2019-05-21T07:42:58.000Z,1007.43
2019-05-21T07:43:58.000Z,1007.43
2019-05-21T07:44:58.000Z,1007.45
2019-05-21T07:45:58.000Z,1007.48
2019-05-21T07:46:58.000Z,1007.44
2019-05-21T07:47:58.000Z,1007.44
2019-05-21T07:48:58.000Z,1007.48
2019-05-21T07:49:58.000Z,1007.38
2019-05-21T07:50:58.000Z,1007.41
2019-05-21T07:51:58.000Z,1007.34
2019-05-21T07:52:58.000Z,1007.36
2019-05-21T07:53:58.000Z,1007.30
2019-05-21T07:54:58.000Z,1007.28
2019-05-21T07:55:58.000Z,1007.30
2019-05-21T07:56:58.000Z,1007.32
2019-05-21T07:57:58.000Z,1007.30
2019-05-21T07:58:58.000Z,1007.38
2019-05-21T07:59:58.000Z,1007.50
2019-05-21T08:00:58.000Z,1007.58
2019-05-21T08:01:58.000Z,1007.69
2019-05-21T08:02:58.000Z,1007.70
2019-05-21T08:03:58.000Z,1007.73
2019-05-21T08:04:58.000Z,1007.76
2019-05-21T08:05:58.000Z,1007.75
2019-05-21T08:06:58.000Z,1007.81
2019-05-21T08:07:58.000Z,1007.80
2019-05-21T08:08:58.000Z,1007.80
2019-05-21T08:09:58.000Z,1007.78
2019-05-21T08:10:58.000Z,1007.86
2019-05-21T08:11:58.000Z,1007.84
2019-05-21T08:12:58.000Z,1007.83
2019-05-21T08:13:58.000Z,1007.80
2019-05-21T08:14:58.000Z,1007.77
2019-05-21T08:15:58.000Z,1007.79
2019-05-21T08:16:58.000Z,1007.83
2019-05-21T08:17:58.000Z,1007.90
2019-05-21T08:18:58.000Z,1007.89
2019-05-21T08:19:58.000Z,1007.91
2019-05-21T08:20:58.000Z,1007.91
2019-05-21T08:21:58.000Z,1007.94
2019-05-21T08:22:58.000Z,1007.92
2019-05-21T08:23:58.000Z,1007.85
2019-05-21T08:24:58.000Z,1007.77
2019-05-21T08:25:58.000Z,1007.79
2019-05-21T08:26:58.000Z,1007.80
2019-05-21T08:27:58.000Z,1007.80
2019-05-21T08:28:58.000Z,1007.85
2019-05-21T08:29:58.000Z,1007.90
2019-05-21T08:30:58.000Z,1007.98
2019-05-21T08:31:58.000Z,1008.00
2019-05-21T08:32:58.000Z,1008.08
2019-05-21T08:33:58.000Z,1008.10
2019-05-21T08:34:58.000Z,1008.12
2019-05-21T08:35:58.000Z,1008.12
2019-05-21T08:36:58.000Z,1008.15
2019-05-21T08:37:58.000Z,1008.15
2019-05-21T08:38:58.000Z,1008.13
2019-05-21T08:39:58.000Z,1008.09
2019-05-21T08:40:58.000Z,1008.02
2019-05-21T08:41:58.000Z,1008.05
2019-05-21T08:42:58.000Z,1008.05
2019-05-21T08:43:58.000Z,1008.05
2019-05-21T08:44:58.000Z,1008.02
2019-05-21T08:45:58.000Z,1008.10
2019-05-21T08:46:58.000Z,1008.14
2019-05-21T08:47:58.000Z,1008.17
2019-05-21T08:48:58.000Z,1008.21
2019-05-21T08:49:58.000Z,1008.25
2019-05-21T08:50:58.000Z,1008.22
2019-05-21T08:51:58.000Z,1008.25
2019-05-21T08:52:58.000Z,1008.18
2019-05-21T08:53:58.000Z,1008.11
2019-05-21T08:54:58.000Z,1008.16
2019-05-21T08:55:58.000Z,1008.21
2019-05-21T08:56:58.000Z,1008.22
2019-05-21T08:57:58.000Z,1008.29
2019-05-21T08:58:58.000Z,1008.34
2019-05-21T08:59:58.000Z,1008.29
2019-05-21T09:00:58.000Z,1008.25
2019-05-21T09:01:58.000Z,1008.18
2019-05-21T09:02:58.000Z,1008.26
2019-05-21T09:03:58.000Z,1008.37
2019-05-21T09:04:58.000Z,1008.45
2019-05-21T09:05:58.000Z,1008.44
2019-05-21T09:06:58.000Z,1008.44
2019-05-21T09:07:58.000Z,1008.31
2019-05-21T09:08:58.000Z,1008.29
2019-05-21T09:09:58.000Z,1008.31
2019-05-21T09:10:58.000Z,1008.39
2019-05-21T09:11:58.000Z,1008.47
2019-05-21T09:12:58.000Z,1008.51
2019-05-21T09:13:58.000Z,1008.54
2019-05-21T09:14:57.000Z,1008.53
2019-05-21T09:15:57.000Z,1008.47
2019-05-21T09:16:57.000Z,1008.43
2019-05-21T09:17:57.000Z,1008.40
2019-05-21T09:18:57.000Z,1008.41
2019-05-21T09:19:58.000Z,1008.38
2019-05-21T09:20:57.000Z,1008.32
2019-05-21T09:21:57.000Z,1008.30
2019-05-21T09:22:58.000Z,1008.28
2019-05-21T09:23:57.000Z,1008.38
2019-05-21T09:24:57.000Z,1008.45
2019-05-21T09:25:57.000Z,1008.56
2019-05-21T09:26:57.000Z,1008.56
2019-05-21T09:27:57.000Z,1008.59
2019-05-21T09:28:57.000Z,1008.51
2019-05-21T09:29:57.000Z,1008.52
2019-05-21T09:30:57.000Z,1008.54
2019-05-21T09:31:57.000Z,1008.52
2019-05-21T09:32:57.000Z,1008.51
2019-05-21T09:33:57.000Z,1008.54
2019-05-21T09:34:57.000Z,1008.54
2019-05-21T09:35:57.000Z,1008.54
2019-05-21T09:36:57.000Z,1008.53
2019-05-21T09:37:57.000Z,1008.51
2019-05-21T09:38:57.000Z,1008.57
2019-05-21T09:39:57.000Z,1008.54
2019-05-21T09:40:57.000Z,1008.54
2019-05-21T09:41:57.000Z,1008.54
2019-05-21T09:42:57.000Z,1008.58
2019-05-21T09:43:57.000Z,1008.52
2019-05-21T09:44:57.000Z,1008.62
2019-05-21T09:45:58.000Z,1008.66
2019-05-21T09:46:58.000Z,1008.66
2019-05-21T09:47:58.000Z,1008.70
2019-05-21T09:48:58.000Z,1008.66
2019-05-21T09:49:58.000Z,1008.67
2019-05-21T09:50:58.000Z,1008.68
2019-05-21T09:51:58.000Z,1008.62
2019-05-21T09:52:58.000Z,1008.63
2019-05-21T09:53:58.000Z,1008.75
2019-05-21T09:54:58.000Z,1008.74
2019-05-21T09:55:58.000Z,1008.73
2019-05-21T09:56:58.000Z,1008.75
2019-05-21T09:57:58.000Z,1008.74
2019-05-21T09:59:08.000Z,1008.87
2019-05-21T10:00:08.000Z,1008.65
2019-05-21T10:01:03.000Z,1008.71
2019-05-21T10:01:58.000Z,1008.84
2019-05-21T10:02:58.000Z,1008.83
2019-05-21T10:03:58.000Z,1008.87
2019-05-21T10:04:58.000Z,1008.82
2019-05-21T10:05:58.000Z,1008.88
2019-05-21T10:06:58.000Z,1008.85
2019-05-21T10:07:58.000Z,1008.82
2019-05-21T10:08:58.000Z,1008.86
2019-05-21T10:09:58.000Z,1008.92
2019-05-21T10:10:58.000Z,1008.92
2019-05-21T10:11:58.000Z,1008.92
2019-05-21T10:12:58.000Z,1008.96
2019-05-21T10:13:58.000Z,1009.00
2019-05-21T10:14:58.000Z,1008.98
2019-05-21T10:15:58.000Z,1008.99
2019-05-21T10:16:58.000Z,1009.01
2019-05-21T10:17:58.000Z,1009.03
2019-05-21T10:18:58.000Z,1009.00
2019-05-21T10:19:58.000Z,1008.98
2019-05-21T10:20:58.000Z,1009.04
2019-05-21T10:21:58.000Z,1009.05
2019-05-21T10:22:58.000Z,1009.04
2019-05-21T10:23:58.000Z,1009.09
2019-05-21T10:24:59.000Z,1009.15
2019-05-21T10:25:58.000Z,1009.10
2019-05-21T10:26:58.000Z,1009.13
2019-05-21T10:27:58.000Z,1009.15
2019-05-21T10:28:58.000Z,1009.17
2019-05-21T10:29:58.000Z,1009.20
2019-05-21T10:30:58.000Z,1009.22
2019-05-21T10:31:58.000Z,1009.17
2019-05-21T10:32:58.000Z,1009.25
2019-05-21T10:33:58.000Z,1009.19
2019-05-21T10:34:58.000Z,1009.27
2019-05-21T10:35:58.000Z,1009.31
2019-05-21T10:36:58.000Z,1009.26
2019-05-21T10:37:58.000Z,1009.33
2019-05-21T10:38:58.000Z,1009.26
2019-05-21T10:39:58.000Z,1009.35
2019-05-21T10:40:58.000Z,1009.39
2019-05-21T10:41:58.000Z,1009.36
2019-05-21T10:42:58.000Z,1009.36
2019-05-21T10:43:58.000Z,1009.37
2019-05-21T10:44:58.000Z,1009.38
2019-05-21T10:45:58.000Z,1009.38
2019-05-21T10:46:58.000Z,1009.42
2019-05-21T10:47:58.000Z,1009.39
2019-05-21T10:48:58.000Z,1009.46
2019-05-21T10:49:58.000Z,1009.42
2019-05-21T10:50:58.000Z,1009.45
2019-05-21T10:51:58.000Z,1009.48
2019-05-21T10:52:58.000Z,1009.49
2019-05-21T10:53:58.000Z,1009.46
2019-05-21T10:54:58.000Z,1009.54
2019-05-21T10:55:58.000Z,1009.48
2019-05-21T10:56:58.000Z,1009.49
2019-05-21T10:57:58.000Z,1009.53
2019-05-21T10:58:58.000Z,1009.54
2019-05-21T10:59:58.000Z,1009.53
2019-05-21T11:00:58.000Z,1009.62
2019-05-21T11:01:58.000Z,1009.58
2019-05-21T11:02:58.000Z,1009.55
2019-05-21T11:03:58.000Z,1009.57
2019-05-21T11:05:28.000Z,1009.60
2019-05-21T11:05:58.000Z,1009.61
2019-05-21T11:06:58.000Z,1009.66
2019-05-21T11:07:58.000Z,1009.65
2019-05-21T11:08:58.000Z,1009.65
2019-05-21T11:09:58.000Z,1009.71
2019-05-21T11:10:58.000Z,1009.70
2019-05-21T11:11:58.000Z,1009.67
2019-05-21T11:12:58.000Z,1009.68
2019-05-21T11:13:58.000Z,1009.71
2019-05-21T11:14:58.000Z,1009.69
2019-05-21T11:15:58.000Z,1009.72
2019-05-21T11:16:58.000Z,1009.76
2019-05-21T11:17:58.000Z,1009.74
2019-05-21T11:18:58.000Z,1009.74
2019-05-21T11:19:58.000Z,1009.77
2019-05-21T11:20:58.000Z,1009.83
2019-05-21T11:21:58.000Z,1009.81
2019-05-21T11:22:58.000Z,1009.86
2019-05-21T11:23:58.000Z,1009.89
2019-05-21T11:24:58.000Z,1009.87
2019-05-21T11:25:58.000Z,1009.89
2019-05-21T11:26:58.000Z,1009.91
2019-05-21T11:27:58.000Z,1009.93
2019-05-21T11:28:58.000Z,1009.97
2019-05-21T11:29:58.000Z,1010.00
2019-05-21T11:30:58.000Z,1010.02
2019-05-21T11:31:58.000Z,1010.04
2019-05-21T11:32:58.000Z,1009.99
2019-05-21T11:33:58.000Z,1010.02
2019-05-21T11:34:58.000Z,1010.03
2019-05-21T11:35:58.000Z,1010.03
2019-05-21T11:36:58.000Z,1010.05
2019-05-21T11:37:58.000Z,1010.10
2019-05-21T11:38:58.000Z,1010.09
2019-05-21T11:39:58.000Z,1010.11
2019-05-21T11:40:58.000Z,1010.15
2019-05-21T11:41:58.000Z,1010.17
2019-05-21T11:42:58.000Z,1010.17
2019-05-21T11:43:58.000Z,1010.20
2019-05-21T11:44:58.000Z,1010.18
2019-05-21T11:45:58.000Z,1010.20
2019-05-21T11:46:58.000Z,1010.24
2019-05-21T11:47:58.000Z,1010.24
2019-05-21T11:48:58.000Z,1010.26
2019-05-21T11:49:58.000Z,1010.25
2019-05-21T11:50:58.000Z,1010.24
2019-05-21T11:51:58.000Z,1010.27
2019-05-21T11:52:58.000Z,1010.32
2019-05-21T11:53:58.000Z,1010.29
2019-05-21T11:54:58.000Z,1010.29
2019-05-21T11:55:58.000Z,1010.35
2019-05-21T11:56:58.000Z,1010.30
2019-05-21T11:57:58.000Z,1010.33
2019-05-21T11:58:58.000Z,1010.34
2019-05-21T11:59:58.000Z,1010.36
2019-05-21T12:00:58.000Z,1010.38
2019-05-21T12:01:58.000Z,1010.39
2019-05-21T12:02:58.000Z,1010.44
2019-05-21T12:03:58.000Z,1010.42
2019-05-21T12:04:58.000Z,1010.41
2019-05-21T12:05:58.000Z,1010.43